Time;durP1;ratioP1;P1;durP2;ratioP2;P2;SDS_P1;SDS_P2;PMS_P1;PMS_P2;Temp;Humidity;BMP_temperature;BMP_pressure;BME280_temperature;BME280_humidity;BME280_pressure;Samples;Min_cycle;Max_cycle;Signal;HPM_P1;HPM_P2
2023/10/25 00:01:56;;;;;;;0.52;0.52;;;;;;;12.52;89.60;94204.41;5033687;28;20705;-76
2023/10/25 00:04:23;;;;;;;0.32;0.32;;;;;;;12.54;89.57;94191.25;5033738;28;20259;-76
2023/10/25 00:06:50;;;;;;;0.88;0.82;;;;;;;12.66;89.19;94185.75;5033641;28;20626;-76
2023/10/25 00:09:18;;;;;;;0.57;0.57;;;;;;;12.81;88.28;94174.06;5020612;28;20216;-77
2023/10/25 00:11:45;;;;;;;0.40;0.40;;;;;;;12.76;88.51;94166.19;5033385;28;20212;-75
2023/10/25 00:14:12;;;;;;;1.83;0.88;;;;;;;12.65;89.00;94159.69;5033342;28;20219;-75
2023/10/25 00:16:38;;;;;;;0.22;0.22;;;;;;;12.66;89.35;94165.94;5033174;28;20271;-75
2023/10/25 00:19:05;;;;;;;0.20;0.20;;;;;;;12.65;89.58;94148.84;5032964;28;20286;-76
2023/10/25 00:21:32;;;;;;;0.20;0.20;;;;;;;12.69;89.29;94166.03;5033348;28;20212;-78
2023/10/25 00:23:59;;;;;;;0.20;0.20;;;;;;;12.55;89.74;94173.81;5033204;28;20674;-74
2023/10/25 00:26:27;;;;;;;0.10;0.10;;;;;;;12.54;89.68;94180.41;5033267;28;20266;-74
2023/10/25 00:28:54;;;;;;;0.30;0.30;;;;;;;12.50;89.85;94174.06;5032635;28;20212;-75
2023/10/25 00:31:20;;;;;;;0.60;0.60;;;;;;;12.33;90.54;94166.25;5033108;28;20266;-74
2023/10/25 00:33:47;;;;;;;0.20;0.20;;;;;;;12.38;90.21;94168.72;5032803;28;20219;-73
2023/10/25 00:36:14;;;;;;;0.30;0.30;;;;;;;12.40;90.29;94155.59;5033304;28;20216;-76
2023/10/25 00:38:41;;;;;;;1.75;0.57;;;;;;;12.34;90.37;94140.69;5032406;28;20243;-76
2023/10/25 00:41:08;;;;;;;0.55;0.55;;;;;;;12.35;91.28;94158.56;5033023;28;20216;-77
2023/10/25 00:43:36;;;;;;;0.85;0.85;;;;;;;12.35;91.46;94139.53;5032809;28;20223;-78
2023/10/25 00:46:12;;;;;;;0.43;0.28;;;;;;;12.53;90.93;94143.50;5033108;28;20299;-75
2023/10/25 00:48:41;;;;;;;0.20;0.20;;;;;;;12.50;90.74;94146.91;5032815;28;20534;-75
2023/10/25 00:51:10;;;;;;;0.20;0.20;;;;;;;12.25;90.81;94145.50;5033183;28;20212;-75
2023/10/25 00:53:39;;;;;;;0.57;0.57;;;;;;;12.21;91.00;94145.41;5032836;28;20668;-75
2023/10/25 00:56:08;;;;;;;0.17;0.17;;;;;;;12.27;90.59;94162.25;5032841;28;20572;-75
2023/10/25 00:58:37;;;;;;;0.10;0.10;;;;;;;12.27;91.00;94178.53;5032489;28;20242;-75
2023/10/25 01:01:05;;;;;;;1.75;1.15;;;;;;;12.30;90.75;94165.03;5032289;28;20270;-75
2023/10/25 01:03:32;;;;;;;5.18;1.50;;;;;;;12.38;90.50;94161.38;5032566;28;20223;-75
2023/10/25 01:06:02;;;;;;;0.77;0.77;;;;;;;12.52;90.20;94150.06;5031993;28;20208;-75
2023/10/25 01:08:29;;;;;;;0.10;0.10;;;;;;;12.50;89.73;94119.75;5032339;28;20523;-75
2023/10/25 01:10:56;;;;;;;0.20;0.20;;;;;;;12.40;90.50;94131.16;5032470;28;20719;-75
2023/10/25 01:13:23;;;;;;;0.30;0.30;;;;;;;12.42;91.01;94123.44;5032459;28;20238;-74
2023/10/25 01:15:51;;;;;;;0.70;0.70;;;;;;;12.28;91.42;94120.38;5032295;28;20212;-75
2023/10/25 01:18:18;;;;;;;0.30;0.30;;;;;;;12.32;91.35;94123.94;5031984;28;20212;-76
2023/10/25 01:20:46;;;;;;;0.10;0.10;;;;;;;12.42;91.34;94140.53;5032447;28;20624;-75
2023/10/25 01:23:14;;;;;;;0.20;0.20;;;;;;;12.48;90.86;94127.44;5032266;28;20211;-75
2023/10/25 01:25:42;;;;;;;0.13;0.13;;;;;;;12.51;91.12;94125.97;5032031;28;20216;-75
2023/10/25 01:28:09;;;;;;;1.75;0.77;;;;;;;12.54;90.72;94120.63;5032018;28;20644;-76
2023/10/25 01:30:36;;;;;;;1.20;0.55;;;;;;;12.59;90.65;94119.56;5032084;28;20230;-76
2023/10/25 01:33:03;;;;;;;0.65;0.65;;;;;;;12.64;90.37;94133.66;5032166;28;20208;-79
2023/10/25 01:35:30;;;;;;;7.35;0.57;;;;;;;12.78;89.50;94120.41;5032085;28;20216;-79
2023/10/25 01:37:57;;;;;;;0.57;0.57;;;;;;;12.68;89.73;94120.97;5031633;28;20208;-79
2023/10/25 01:40:26;;;;;;;0.20;0.20;;;;;;;12.74;89.25;94122.25;5031795;28;20231;-79
2023/10/25 01:42:54;;;;;;;0.70;0.70;;;;;;;12.77;89.52;94112.59;5031488;28;20235;-78
2023/10/25 01:45:23;;;;;;;0.30;0.30;;;;;;;12.73;89.57;94136.97;5031943;28;20560;-77
2023/10/25 01:47:50;;;;;;;0.20;0.20;;;;;;;12.65;90.30;94137.19;5031414;28;20204;-79
2023/10/25 01:50:18;;;;;;;0.13;0.13;;;;;;;12.55;90.49;94152.09;5031660;28;20223;-78
2023/10/25 01:52:45;;;;;;;0.20;0.20;;;;;;;12.55;90.76;94154.00;5034639;28;20280;-77
2023/10/25 01:55:12;;;;;;;0.70;0.68;;;;;;;12.47;91.00;94147.59;5046354;28;20656;-78
2023/10/25 01:57:40;;;;;;;0.45;0.40;;;;;;;12.42;91.49;94151.41;5039054;28;20212;-77
2023/10/25 02:00:08;;;;;;;0.65;0.65;;;;;;;12.40;91.64;94152.88;5031056;28;20294;-78
2023/10/25 02:02:35;;;;;;;0.52;0.52;;;;;;;12.32;91.76;94156.53;5031886;28;20668;-77
2023/10/25 02:05:02;;;;;;;0.20;0.20;;;;;;;12.33;91.75;94156.19;5031507;28;20224;-73
2023/10/25 02:07:28;;;;;;;0.30;0.30;;;;;;;12.28;91.55;94161.91;5030937;28;20615;-73
2023/10/25 02:09:55;;;;;;;0.20;0.20;;;;;;;12.20;91.63;94153.91;5031417;28;20298;-73
2023/10/25 02:12:22;;;;;;;0.60;0.60;;;;;;;12.17;92.15;94144.53;5031329;28;20284;-73
2023/10/25 02:14:50;;;;;;;0.47;0.47;;;;;;;12.28;91.97;94150.25;5031468;28;20561;-72
2023/10/25 02:17:17;;;;;;;0.30;0.30;;;;;;;12.19;92.45;94133.31;5031837;28;20211;-75
2023/10/25 02:19:45;;;;;;;0.35;0.35;;;;;;;12.26;92.46;94130.78;5031179;28;20795;-72
2023/10/25 02:22:12;;;;;;;0.20;0.20;;;;;;;12.27;92.78;94145.94;5031274;28;20356;-74
2023/10/25 02:24:38;;;;;;;0.20;0.20;;;;;;;12.23;92.78;94134.19;5031079;28;20211;-73
2023/10/25 02:27:05;;;;;;;1.27;0.90;;;;;;;12.30;92.31;94137.13;5031472;28;20631;-73
2023/10/25 02:29:32;;;;;;;0.40;0.40;;;;;;;12.27;92.37;94133.16;5031039;28;20217;-75
2023/10/25 02:32:01;;;;;;;0.20;0.20;;;;;;;12.35;92.23;94132.19;5030789;28;20220;-73
2023/10/25 02:34:28;;;;;;;0.15;0.15;;;;;;;12.41;91.74;94130.00;5031657;28;20715;-74
2023/10/25 02:36:55;;;;;;;0.43;0.43;;;;;;;12.67;89.73;94092.22;5030600;28;20214;-73
2023/10/25 02:39:23;;;;;;;0.98;0.73;;;;;;;12.77;89.63;94097.09;5030589;28;20449;-74
2023/10/25 02:41:49;;;;;;;0.22;0.22;;;;;;;12.87;88.72;94074.00;5030787;28;20295;-73
2023/10/25 02:44:16;;;;;;;3.42;1.02;;;;;;;13.00;87.73;94055.63;5030633;28;20212;-73
2023/10/25 02:46:43;;;;;;;0.20;0.20;;;;;;;13.07;87.47;94053.84;5030788;28;20224;-73
2023/10/25 02:49:11;;;;;;;0.32;0.32;;;;;;;13.27;86.22;94032.91;5030425;28;20200;-74
2023/10/25 02:51:38;;;;;;;0.20;0.20;;;;;;;13.64;84.03;94035.16;5030632;28;20215;-70
2023/10/25 02:54:05;;;;;;;0.85;0.50;;;;;;;13.78;83.22;94038.94;5030411;28;20218;-72
2023/10/25 02:56:32;;;;;;;0.10;0.10;;;;;;;13.78;83.04;94016.38;5030790;28;20216;-72
2023/10/25 02:58:59;;;;;;;0.52;0.52;;;;;;;13.84;82.81;94012.19;5029978;28;20320;-71
2023/10/25 03:01:26;;;;;;;0.40;0.40;;;;;;;14.00;82.04;94021.03;5030180;28;20264;-73
2023/10/25 03:03:53;;;;;;;0.20;0.20;;;;;;;13.97;82.14;94016.28;5030379;28;20695;-73
2023/10/25 03:06:22;;;;;;;0.30;0.30;;;;;;;14.03;81.78;94014.84;5030784;28;20216;-72
2023/10/25 03:08:48;;;;;;;0.20;0.20;;;;;;;14.02;82.09;94013.28;5029951;28;20227;-72
2023/10/25 03:11:15;;;;;;;0.38;0.38;;;;;;;14.06;81.85;94007.91;5030309;28;20212;-73
2023/10/25 03:13:42;;;;;;;3.13;1.00;;;;;;;14.00;81.56;93999.25;5030129;28;20258;-73
2023/10/25 03:16:09;;;;;;;0.40;0.30;;;;;;;14.04;81.31;93993.84;5030664;28;20212;-72
2023/10/25 03:18:36;;;;;;;0.40;0.40;;;;;;;14.08;80.90;93992.75;5029898;28;20208;-72
2023/10/25 03:21:04;;;;;;;0.40;0.40;;;;;;;13.96;81.81;93997.59;5029436;28;21018;-74
2023/10/25 03:23:33;;;;;;;0.40;0.40;;;;;;;13.85;82.53;94008.31;5030189;28;20212;-72
2023/10/25 03:26:04;;;;;;;0.90;0.90;;;;;;;13.83;83.00;94016.84;5030053;28;20216;-71
2023/10/25 03:28:31;;;;;;;0.88;0.80;;;;;;;13.77;82.88;94006.63;5027631;28;20224;-71
2023/10/25 03:30:58;;;;;;;0.20;0.20;;;;;;;13.71;83.64;94003.41;5028682;28;20558;-72
2023/10/25 03:33:25;;;;;;;0.52;0.52;;;;;;;13.63;83.63;94001.72;5029696;28;20212;-73
2023/10/25 03:35:52;;;;;;;0.30;0.30;;;;;;;13.59;84.21;94000.06;5029976;28;20628;-72
2023/10/25 03:38:19;;;;;;;0.32;0.32;;;;;;;13.55;84.33;94004.66;5029519;28;20200;-73
2023/10/25 03:40:48;;;;;;;0.20;0.20;;;;;;;13.67;83.70;94001.78;5029277;28;20231;-73
2023/10/25 03:43:14;;;;;;;0.65;0.65;;;;;;;13.67;83.86;94007.22;5030074;28;20661;-72
2023/10/25 03:45:41;;;;;;;0.25;0.25;;;;;;;13.71;83.80;94013.50;5029331;28;20196;-73
2023/10/25 03:48:08;;;;;;;7.47;0.90;;;;;;;13.66;83.65;94000.22;5029832;28;20197;-72
2023/10/25 03:50:36;;;;;;;0.63;0.63;;;;;;;13.75;83.42;94003.47;5030486;28;20204;-73
2023/10/25 03:53:03;;;;;;;0.65;0.65;;;;;;;13.60;83.56;94012.53;5029761;28;20239;-73
2023/10/25 03:55:30;;;;;;;2.67;0.85;;;;;;;13.75;83.66;94019.81;5029979;28;20197;-73
2023/10/25 03:57:58;;;;;;;0.30;0.30;;;;;;;13.74;83.87;94024.47;5021372;28;20205;-73
2023/10/25 04:00:25;;;;;;;0.55;0.55;;;;;;;13.73;83.93;94005.78;5025353;28;20239;-72
2023/10/25 04:02:52;;;;;;;2.28;1.10;;;;;;;13.63;84.60;94014.53;5023035;28;20200;-73
2023/10/25 04:33:40;;;;;;;3.13;2.28;;;;;;;13.07;88.58;93995.97;5095060;27;2216454;-76
2023/10/25 04:36:08;;;;;;;0.55;0.55;;;;;;;13.18;88.24;94012.53;5164943;27;20214;-77
2023/10/25 04:38:35;;;;;;;0.30;0.30;;;;;;;13.30;88.01;93979.72;5159503;27;20282;-77
2023/10/25 04:41:02;;;;;;;0.20;0.20;;;;;;;13.38;87.40;93990.41;5161359;27;20746;-76
2023/10/25 04:43:29;;;;;;;0.20;0.20;;;;;;;13.42;87.12;93977.63;5156502;27;20541;-77
2023/10/25 04:45:56;;;;;;;0.30;0.30;;;;;;;13.47;86.52;93977.34;5160100;27;20204;-77
2023/10/25 04:48:23;;;;;;;0.70;0.70;;;;;;;13.45;87.23;93968.75;5160266;27;20647;-76
2023/10/25 04:50:54;;;;;;;0.50;0.50;;;;;;;13.41;87.15;93967.88;5170141;27;20326;-76
2023/10/25 04:53:20;;;;;;;0.90;0.73;;;;;;;13.48;87.02;93937.31;5168274;27;20218;-76
2023/10/25 04:55:48;;;;;;;9.90;2.00;;;;;;;13.54;86.81;93944.00;5165767;27;20202;-77
2023/10/25 04:58:15;;;;;;;0.20;0.20;;;;;;;13.48;87.38;93940.03;5165074;27;20639;-77
2023/10/25 05:00:42;;;;;;;0.30;0.30;;;;;;;13.62;86.01;93940.28;5169690;27;20235;-77
2023/10/25 05:03:11;;;;;;;0.30;0.30;;;;;;;13.72;85.88;93947.03;5163600;27;20541;-77
2023/10/25 05:05:38;;;;;;;0.20;0.20;;;;;;;13.56;86.24;93946.38;5146298;27;20235;-77
2023/10/25 05:08:07;;;;;;;2.15;0.35;;;;;;;13.69;86.49;93942.31;5152468;27;20197;-73
2023/10/25 05:10:34;;;;;;;1.08;0.77;;;;;;;13.71;86.18;93953.63;5140745;27;20204;-74
2023/10/25 05:13:01;;;;;;;0.50;0.50;;;;;;;13.71;85.78;93945.47;5149900;27;20236;-73
2023/10/25 05:15:29;;;;;;;0.28;0.28;;;;;;;13.78;85.37;93948.31;5150533;27;20644;-77
2023/10/25 05:17:56;;;;;;;0.40;0.40;;;;;;;13.84;84.69;93955.81;5166064;27;20200;-77
2023/10/25 05:20:23;;;;;;;0.50;0.50;;;;;;;13.86;85.85;93944.56;5159232;27;20609;-78
2023/10/25 05:22:52;;;;;;;0.50;0.40;;;;;;;13.84;85.31;93957.75;5148211;27;20212;-77
2023/10/25 05:25:21;;;;;;;0.45;0.45;;;;;;;13.90;85.74;93961.75;5148529;27;20557;-77
2023/10/25 05:27:49;;;;;;;0.50;0.50;;;;;;;13.94;85.32;93961.81;5148255;27;20564;-77
2023/10/25 05:30:17;;;;;;;0.57;0.40;;;;;;;13.86;85.74;93971.78;5147899;27;20208;-77
2023/10/25 05:32:46;;;;;;;0.70;0.57;;;;;;;13.93;85.57;93971.91;5147794;27;20229;-78
2023/10/25 05:35:15;;;;;;;1.10;1.10;;;;;;;13.86;85.56;93950.00;5147771;27;20239;-79
2023/10/25 05:37:42;;;;;;;0.95;0.65;;;;;;;13.93;85.29;93963.75;5148140;27;20208;-77
2023/10/25 05:40:10;;;;;;;0.40;0.40;;;;;;;14.01;85.07;93962.69;5147909;27;20269;-78
2023/10/25 05:42:44;;;;;;;2.92;0.80;;;;;;;14.04;85.43;93961.97;5147925;27;20213;-77
2023/10/25 05:45:11;;;;;;;0.28;0.28;;;;;;;14.26;83.61;93951.38;5152289;27;20249;-77
2023/10/25 05:47:38;;;;;;;1.35;1.25;;;;;;;14.31;83.63;93951.84;5153972;27;20280;-77
2023/10/25 05:50:06;;;;;;;0.75;0.75;;;;;;;14.27;83.68;93947.50;5133888;27;20216;-77
2023/10/25 05:52:34;;;;;;;1.10;0.65;;;;;;;14.41;83.12;93942.28;5133738;27;20240;-78
2023/10/25 05:55:02;;;;;;;0.52;0.52;;;;;;;14.73;80.88;93948.97;5139851;27;20211;-77
2023/10/25 05:57:29;;;;;;;0.40;0.40;;;;;;;14.74;81.72;93956.00;5154703;27;20213;-77
2023/10/25 05:59:58;;;;;;;0.35;0.35;;;;;;;14.79;80.95;93961.09;5154388;27;20204;-77
2023/10/25 06:02:28;;;;;;;0.57;0.57;;;;;;;15.27;77.73;93964.00;5154678;27;20543;-77
2023/10/25 06:04:56;;;;;;;0.80;0.80;;;;;;;15.33;78.20;93972.63;5154911;27;20653;-77
2023/10/25 06:07:24;;;;;;;0.20;0.20;;;;;;;15.43;77.58;93980.19;5154620;27;20295;-77
2023/10/25 06:09:51;;;;;;;2.15;0.73;;;;;;;15.38;77.56;93962.19;5147197;27;20254;-77
2023/10/25 06:12:21;;;;;;;0.93;0.70;;;;;;;15.42;78.14;93973.94;5133986;27;20236;-78
2023/10/25 06:15:08;;;;;;;1.73;1.60;;;;;;;15.62;76.43;93945.28;5133216;27;20304;-76
2023/10/25 06:17:35;;;;;;;0.38;0.30;;;;;;;15.93;75.41;93960.41;5133033;27;20558;-78
2023/10/25 06:20:02;;;;;;;0.65;0.65;;;;;;;16.08;74.85;93971.44;5133893;27;20572;-77
2023/10/25 06:22:29;;;;;;;0.85;0.85;;;;;;;16.17;74.53;93942.63;5131352;27;20212;-77
2023/10/25 06:24:55;;;;;;;1.35;1.25;;;;;;;16.38;73.91;93957.63;5136156;27;20196;-79
2023/10/25 06:27:22;;;;;;;1.80;1.45;;;;;;;16.42;73.16;93920.91;5153325;27;20211;-78
2023/10/25 06:29:49;;;;;;;4.15;3.22;;;;;;;16.61;71.66;93969.09;5132704;27;20208;-78
2023/10/25 06:32:17;;;;;;;0.38;0.38;;;;;;;16.49;73.16;93980.34;5149513;27;20239;-76
2023/10/25 06:34:44;;;;;;;14.35;1.20;;;;;;;16.26;73.81;93972.38;5153253;27;20240;-78
2023/10/25 06:37:11;;;;;;;0.88;0.68;;;;;;;16.23;73.79;93951.25;5136010;27;20606;-78
2023/10/25 06:39:39;;;;;;;0.30;0.30;;;;;;;16.38;73.26;93952.16;5144651;27;20204;-77
2023/10/25 06:42:07;;;;;;;0.47;0.40;;;;;;;16.53;72.63;93945.59;5126181;27;20209;-77
2023/10/25 06:44:36;;;;;;;0.55;0.55;;;;;;;16.61;72.37;93952.69;5133609;27;20224;-79
2023/10/25 06:47:04;;;;;;;1.30;1.10;;;;;;;16.68;72.36;93955.47;5133375;27;20579;-78
2023/10/25 06:49:34;;;;;;;0.50;0.50;;;;;;;16.80;72.10;93968.06;5150655;27;20306;-76
2023/10/25 06:52:01;;;;;;;0.50;0.50;;;;;;;16.80;71.25;93968.06;5153668;27;20675;-76
2023/10/25 06:54:29;;;;;;;0.85;0.85;;;;;;;16.77;71.94;93964.13;5153767;27;20208;-78
2023/10/25 06:56:58;;;;;;;0.68;0.60;;;;;;;16.94;71.68;93968.91;5153541;27;20227;-78
2023/10/25 06:59:25;;;;;;;0.32;0.32;;;;;;;17.16;70.19;93963.53;5136598;27;20209;-77
2023/10/25 07:02:02;;;;;;;2.25;0.77;;;;;;;17.42;69.76;93955.00;5133093;27;20240;-78
2023/10/25 07:04:29;;;;;;;0.47;0.47;;;;;;;17.45;69.55;93943.28;5133215;27;20203;-78
2023/10/25 07:06:58;;;;;;;1.38;1.00;;;;;;;17.55;70.00;93947.19;5133393;27;20212;-78
2023/10/25 07:09:25;;;;;;;1.55;0.43;;;;;;;17.27;70.01;93964.34;5139007;27;20743;-77
2023/10/25 07:11:52;;;;;;;0.77;0.77;;;;;;;17.08;71.06;93967.41;5133128;27;20201;-77
2023/10/25 07:14:19;;;;;;;1.50;1.20;;;;;;;17.09;70.62;93966.22;5132806;27;20232;-77
2023/10/25 07:16:45;;;;;;;4.55;1.77;;;;;;;17.33;70.20;93984.72;5141518;27;20204;-77
2023/10/25 07:19:13;;;;;;;2.67;1.52;;;;;;;17.43;68.59;93983.94;5151685;27;20200;-78
2023/10/25 07:21:40;;;;;;;2.90;1.85;;;;;;;17.44;69.20;93999.22;5152735;27;20565;-77
2023/10/25 07:24:10;;;;;;;3.22;1.63;;;;;;;17.50;69.29;93981.22;5138215;27;20284;-76
2023/10/25 07:26:37;;;;;;;1.45;1.20;;;;;;;17.41;69.55;93980.81;5131627;27;20277;-76
2023/10/25 07:29:04;;;;;;;0.80;0.80;;;;;;;17.39;69.25;93988.63;5132815;27;20213;-79
2023/10/25 07:31:31;;;;;;;1.00;0.95;;;;;;;17.44;68.05;93991.00;5132669;27;20224;-76
2023/10/25 07:33:58;;;;;;;1.25;0.95;;;;;;;17.32;68.02;93999.56;5132822;27;20236;-76
2023/10/25 07:36:25;;;;;;;0.20;0.20;;;;;;;17.20;67.68;93991.69;5132471;27;20204;-76
2023/10/25 07:38:52;;;;;;;0.20;0.20;;;;;;;17.24;68.43;94000.69;5132868;27;20592;-73
2023/10/25 07:41:20;;;;;;;0.73;0.73;;;;;;;17.31;67.57;93993.31;5132639;27;20591;-73
2023/10/25 07:43:47;;;;;;;0.38;0.38;;;;;;;17.62;67.24;94016.50;5119291;27;20197;-73
2023/10/25 07:46:14;;;;;;;1.33;1.20;;;;;;;17.81;66.17;94004.41;5146576;27;20204;-74
2023/10/25 07:48:40;;;;;;;0.50;0.50;;;;;;;17.77;66.57;94007.16;5153475;27;20196;-75
2023/10/25 07:51:07;;;;;;;2.95;2.05;;;;;;;18.06;65.40;94004.44;5153084;27;20216;-74
2023/10/25 07:53:34;;;;;;;0.25;0.25;;;;;;;17.93;65.52;94011.47;5153069;27;20228;-73
2023/10/25 07:56:03;;;;;;;0.52;0.50;;;;;;;17.84;64.88;94002.88;5152987;27;20219;-74
2023/10/25 07:58:31;;;;;;;4.60;1.65;;;;;;;17.95;65.05;94003.66;5152939;27;20398;-73
2023/10/25 08:00:58;;;;;;;1.35;0.95;;;;;;;18.05;64.36;94008.38;5153087;27;20232;-73
2023/10/25 08:03:28;;;;;;;0.20;0.20;;;;;;;18.23;64.10;94024.84;5153499;27;20204;-73
2023/10/25 08:05:56;;;;;;;0.50;0.50;;;;;;;18.38;64.14;94031.91;5153008;27;20200;-78
2023/10/25 08:08:23;;;;;;;0.40;0.40;;;;;;;18.30;63.47;94031.13;5152509;27;20265;-79
2023/10/25 08:10:50;;;;;;;0.60;0.60;;;;;;;18.13;63.59;94009.97;5137329;27;20205;-80
2023/10/25 08:13:16;;;;;;;0.38;0.38;;;;;;;18.38;63.24;94021.72;5132236;27;20717;-78
2023/10/25 08:15:44;;;;;;;0.55;0.55;;;;;;;18.53;62.21;94016.22;5131495;27;20300;-77
2023/10/25 08:18:12;;;;;;;0.60;0.60;;;;;;;18.50;62.41;94017.00;5132409;27;20208;-79
2023/10/25 08:20:39;;;;;;;2.95;0.65;;;;;;;19.03;62.26;94039.69;5131689;27;20200;-78
2023/10/25 08:23:06;;;;;;;3.90;0.70;;;;;;;18.75;61.63;94020.53;5132484;27;20564;-78
2023/10/25 08:25:34;;;;;;;6.00;2.05;;;;;;;19.00;61.80;94015.78;5131990;27;20564;-76
2023/10/25 08:28:01;;;;;;;4.45;1.98;;;;;;;19.05;60.99;94023.63;5132077;27;20684;-76
2023/10/25 08:30:29;;;;;;;0.43;0.40;;;;;;;19.33;59.46;94041.19;5132201;28;20754;-76
2023/10/25 08:32:57;;;;;;;3.08;1.33;;;;;;;19.70;59.19;94041.47;5129664;28;20328;-76
2023/10/25 08:35:24;;;;;;;5.03;1.90;;;;;;;19.81;58.47;94033.97;5131610;28;20216;-75
2023/10/25 08:37:51;;;;;;;3.00;1.77;;;;;;;19.55;59.44;94020.72;5131666;28;20659;-75
2023/10/25 08:40:18;;;;;;;1.27;1.15;;;;;;;19.58;58.86;94041.91;5132030;28;20201;-79
2023/10/25 08:42:45;;;;;;;0.30;0.30;;;;;;;19.46;59.44;94023.88;5131712;28;20235;-78
2023/10/25 08:45:14;;;;;;;2.40;0.57;;;;;;;18.99;61.01;94027.97;5149854;27;20606;-78
2023/10/25 08:47:41;;;;;;;0.90;0.85;;;;;;;19.25;61.10;94045.16;5152160;27;20307;-77
2023/10/25 08:50:13;;;;;;;0.40;0.40;;;;;;;19.51;59.83;94048.25;5133760;27;20197;-78
2023/10/25 08:52:45;;;;;;;9.27;1.30;;;;;;;19.66;59.23;94037.19;5131556;28;20236;-79
2023/10/25 08:55:12;;;;;;;0.30;0.30;;;;;;;19.79;59.16;94030.84;5152282;27;20211;-77
2023/10/25 09:00:09;;;;;;;1.05;0.95;;;;;;;20.48;57.24;94013.53;5065955;22;20288;-77
2023/10/25 09:02:37;;;;;;;0.80;0.80;;;;;;;20.21;57.31;94009.78;5069681;28;20207;-76
2023/10/25 09:05:06;;;;;;;1.05;1.02;;;;;;;20.69;56.69;94025.53;5070147;28;20210;-77
2023/10/25 09:07:36;;;;;;;0.50;0.50;;;;;;;21.17;55.42;94026.25;5051408;28;20244;-77
2023/10/25 09:10:04;;;;;;;0.50;0.50;;;;;;;21.35;54.14;94025.28;5070703;28;20593;-76
2023/10/25 09:12:34;;;;;;;7.00;1.80;;;;;;;21.59;53.21;94029.75;5070103;28;20234;-76
2023/10/25 09:15:00;;;;;;;3.50;1.83;;;;;;;20.81;54.49;94011.25;5070153;28;20230;-77
2023/10/25 09:17:27;;;;;;;0.30;0.30;;;;;;;20.77;55.19;94016.03;5069738;28;20207;-77
2023/10/25 09:19:54;;;;;;;4.70;1.25;;;;;;;20.66;55.23;94015.31;5072864;28;20693;-76
2023/10/25 09:22:22;;;;;;;3.60;1.17;;;;;;;20.62;55.28;94023.63;5073902;28;20230;-75
2023/10/25 09:24:51;;;;;;;3.53;1.20;;;;;;;20.92;55.27;94022.94;5073707;28;20203;-77
2023/10/25 09:27:18;;;;;;;1.45;0.98;;;;;;;21.16;53.81;94024.69;5073753;28;20218;-77
2023/10/25 09:29:45;;;;;;;2.10;1.20;;;;;;;21.06;53.18;94009.03;5073814;28;20637;-74
2023/10/25 09:32:12;;;;;;;3.03;1.25;;;;;;;20.78;54.49;94012.84;5073671;28;20572;-74
2023/10/25 09:34:39;;;;;;;2.00;1.10;;;;;;;21.10;53.79;94031.81;5073478;28;20242;-73
2023/10/25 09:37:07;;;;;;;1.52;1.05;;;;;;;21.13;54.18;94014.47;5073272;28;20199;-74
2023/10/25 09:39:36;;;;;;;3.03;1.50;;;;;;;21.04;53.29;94007.91;5073345;28;20292;-74
2023/10/25 09:42:06;;;;;;;1.58;0.88;;;;;;;21.25;53.26;93997.44;5071327;28;20207;-73
2023/10/25 09:44:38;;;;;;;3.33;1.20;;;;;;;21.21;53.10;94002.22;5066086;28;20198;-74
2023/10/25 09:47:10;;;;;;;0.60;0.60;;;;;;;21.03;53.84;93998.84;5073446;28;20214;-73
2023/10/25 09:49:42;;;;;;;1.35;1.25;;;;;;;20.76;54.25;93982.22;5055545;28;20240;-76
2023/10/25 09:52:19;;;;;;;1.20;1.10;;;;;;;20.88;54.18;94005.69;5073836;28;20199;-73
2023/10/25 09:54:50;;;;;;;3.10;1.50;;;;;;;21.13;53.48;94008.97;5068459;28;20223;-73
2023/10/25 09:57:29;;;;;;;1.13;0.85;;;;;;;21.38;53.44;93999.66;5053662;28;20204;-74
2023/10/25 09:59:57;;;;;;;2.92;1.45;;;;;;;21.35;53.04;93978.44;5060350;28;20651;-74
2023/10/25 10:02:35;;;;;;;1.65;1.40;;;;;;;21.75;52.07;93974.78;5072024;28;20203;-73
2023/10/25 10:05:10;;;;;;;6.25;1.20;;;;;;;21.85;51.60;93965.59;5053449;28;20659;-75
2023/10/25 10:07:46;;;;;;;2.35;1.27;;;;;;;21.54;52.16;93964.03;5052802;28;20199;-76
2023/10/25 10:10:22;;;;;;;4.85;1.90;;;;;;;21.86;52.42;93953.38;5065605;28;20570;-74
2023/10/25 10:12:50;;;;;;;4.18;1.92;;;;;;;22.21;50.97;93951.28;5073334;28;20202;-73
2023/10/25 10:15:19;;;;;;;3.08;1.45;;;;;;;22.27;50.74;93938.59;5072916;28;20582;-74
2023/10/25 10:17:46;;;;;;;2.13;0.90;;;;;;;22.81;49.04;93932.97;5072882;28;20198;-75
2023/10/25 10:20:25;;;;;;;1.67;1.13;;;;;;;23.36;48.85;93941.34;5072742;28;20207;-74
2023/10/25 10:23:02;;;;;;;1.75;1.10;;;;;;;23.19;48.23;93931.44;5060200;28;20203;-75
2023/10/25 10:25:45;;;;;;;7.40;2.08;;;;;;;23.29;48.96;93933.19;5070671;28;20333;-73
2023/10/25 10:28:14;;;;;;;3.85;1.20;;;;;;;23.59;49.22;93931.44;5052656;28;20353;-74
2023/10/25 10:30:42;;;;;;;3.55;1.65;;;;;;;24.04;46.99;93918.56;5052420;28;20319;-75
2023/10/25 10:33:11;;;;;;;2.85;1.38;;;;;;;24.66;45.02;93902.81;5066561;28;20214;-74
2023/10/25 10:35:45;;;;;;;6.65;0.98;;;;;;;25.07;43.07;93893.81;5052954;28;20618;-74
2023/10/25 10:38:12;;;;;;;4.00;1.27;;;;;;;25.52;43.05;93892.94;5052774;28;20265;-74
2023/10/25 10:40:39;;;;;;;5.30;0.93;;;;;;;25.84;41.34;93895.53;5052718;28;20613;-75
2023/10/25 10:43:07;;;;;;;5.72;1.98;;;;;;;26.03;41.60;93885.44;5053194;28;20215;-74
2023/10/25 10:45:36;;;;;;;4.28;2.25;;;;;;;25.79;41.03;93881.44;5072499;28;20238;-77
2023/10/25 10:48:12;;;;;;;10.48;2.30;;;;;;;25.94;40.93;93882.56;5057956;28;20207;-74
2023/10/25 10:50:40;;;;;;;10.40;1.48;;;;;;;26.24;40.09;93877.66;5061806;28;20195;-74
2023/10/25 10:53:07;;;;;;;3.25;1.40;;;;;;;26.25;39.93;93879.19;5068914;28;20218;-75
2023/10/25 10:55:35;;;;;;;1.65;0.75;;;;;;;25.99;40.37;93878.44;5034076;28;20231;-76
2023/10/25 10:58:02;;;;;;;2.00;1.52;;;;;;;25.98;40.14;93877.66;5055724;28;20214;-75
2023/10/25 11:00:29;;;;;;;1.25;0.82;;;;;;;25.98;40.50;93871.34;5061504;28;20353;-74
2023/10/25 11:03:01;;;;;;;2.97;1.15;;;;;;;26.31;40.07;93874.66;5051690;28;20234;-76
2023/10/25 11:05:28;;;;;;;4.43;1.75;;;;;;;26.02;40.07;93883.88;5051823;28;20290;-76
2023/10/25 11:07:55;;;;;;;2.53;0.75;;;;;;;25.89;40.81;93874.78;5051452;28;20212;-75
2023/10/25 11:10:22;;;;;;;4.32;1.90;;;;;;;25.13;41.84;93877.44;5062789;28;20260;-74
2023/10/25 11:12:49;;;;;;;4.13;0.82;;;;;;;24.97;42.38;93871.94;5071554;28;20215;-76
2023/10/25 11:15:18;;;;;;;2.67;0.55;;;;;;;25.30;42.62;93869.81;5071375;28;20311;-78
2023/10/25 11:22:57;;;;;;;6.10;2.28;;;;;;;25.21;41.98;93881.53;5084812;22;21002;-79
2023/10/25 11:25:29;;;;;;;2.28;1.00;;;;;;;25.47;42.39;93899.00;5234459;22;20226;-77
2023/10/25 11:27:56;;;;;;;8.70;1.10;;;;;;;25.60;42.28;93902.59;5051661;28;20204;-77
2023/10/25 11:30:25;;;;;;;3.92;0.80;;;;;;;25.33;42.83;93894.66;5035661;28;20235;-75
2023/10/25 11:32:53;;;;;;;3.88;1.30;;;;;;;25.13;42.51;93891.28;5032977;28;20249;-77
2023/10/25 11:35:22;;;;;;;1.98;0.73;;;;;;;24.80;43.21;93888.56;5031659;28;20678;-75
2023/10/25 11:37:51;;;;;;;2.67;1.60;;;;;;;24.64;43.79;93888.59;5031913;28;20208;-74
2023/10/25 11:40:19;;;;;;;2.80;0.88;;;;;;;24.76;43.27;93878.78;5031545;28;20208;-75
2023/10/25 11:42:49;;;;;;;2.92;1.58;;;;;;;24.72;43.92;93876.16;5031436;28;20212;-74
2023/10/25 11:45:17;;;;;;;2.88;1.05;;;;;;;24.30;44.45;93874.47;5037630;28;20568;-75
2023/10/25 11:47:47;;;;;;;3.83;2.03;;;;;;;24.01;44.75;93874.34;5051850;28;20587;-74
2023/10/25 11:50:14;;;;;;;4.43;1.70;;;;;;;24.04;44.82;93890.88;5051958;28;20599;-74
2023/10/25 11:52:41;;;;;;;2.67;1.17;;;;;;;24.07;45.15;93884.47;5050128;28;20218;-79
2023/10/25 11:55:09;;;;;;;1.65;1.13;;;;;;;24.55;44.46;93873.84;5051427;28;20231;-76
2023/10/25 11:57:37;;;;;;;6.38;1.40;;;;;;;24.58;44.14;93868.22;5051477;28;20214;-78
2023/10/25 12:00:08;;;;;;;6.50;1.90;;;;;;;24.78;44.02;93871.59;5051219;28;20203;-79
2023/10/25 12:02:36;;;;;;;1.85;1.25;;;;;;;24.53;44.07;93877.03;5051304;28;20679;-78
2023/10/25 12:05:04;;;;;;;4.25;1.27;;;;;;;24.26;44.76;93887.63;5051803;28;20648;-79
2023/10/25 12:07:32;;;;;;;2.42;0.80;;;;;;;24.10;44.87;93872.53;5051139;28;20234;-79
2023/10/25 12:09:59;;;;;;;1.83;0.98;;;;;;;23.92;45.61;93863.88;5050746;28;20227;-79
2023/10/25 12:12:25;;;;;;;8.10;2.70;;;;;;;23.76;45.59;93868.63;5050991;28;20215;-76
2023/10/25 12:14:53;;;;;;;2.05;0.98;;;;;;;23.64;46.36;93867.31;5051044;28;20231;-78